sensor_id;sensor_type;location;lat;lon;timestamp;pressure;altitude;pressure_sealevel;temperature;humidity
42621;BME280;28252;53.336;-6.298;2023-08-12T00:00:13;100151.97;;;24.65;100.00
42621;BME280;28252;53.336;-6.298;2023-08-12T00:00:51;100151.97;;;24.65;100.00
42621;BME280;28252;53.336;-6.298;2023-08-12T00:01:29;100143.19;;;24.63;100.00
42621;BME280;28252;53.336;-6.298;2023-08-12T00:02:04;100148.63;;;24.63;100.00
42621;BME280;28252;53.336;-6.298;2023-08-12T00:02:38;100137.75;;;24.63;100.00
42621;BME280;28252;53.336;-6.298;2023-08-12T00:03:12;100142.38;;;24.63;100.00
42621;BME280;28252;53.336;-6.298;2023-08-12T00:03:46;100138.56;;;24.64;100.00
42621;BME280;28252;53.336;-6.298;2023-08-12T00:04:17;100139.63;;;24.63;100.00
42621;BME280;28252;53.336;-6.298;2023-08-12T00:04:50;100143.19;;;24.63;100.00
42621;BME280;28252;53.336;-6.298;2023-08-12T00:05:23;100148.63;;;24.63;100.00
42621;BME280;28252;53.336;-6.298;2023-08-12T00:05:55;100136.09;;;24.62;100.00
42621;BME280;28252;53.336;-6.298;2023-08-12T00:06:32;100130.63;;;24.62;100.00
42621;BME280;28252;53.336;-6.298;2023-08-12T00:07:03;100133.38;;;24.62;100.00
42621;BME280;28252;53.336;-6.298;2023-08-12T00:07:39;100135.22;;;24.61;100.00
42621;BME280;28252;53.336;-6.298;2023-08-12T00:08:17;100123.50;;;24.61;100.00
42621;BME280;28252;53.336;-6.298;2023-08-12T00:08:48;100128.97;;;24.61;100.00
42621;BME280;28252;53.336;-6.298;2023-08-12T00:09:19;100137.94;;;24.61;100.00
42621;BME280;28252;53.336;-6.298;2023-08-12T00:09:52;100118.06;;;24.61;100.00
42621;BME280;28252;53.336;-6.298;2023-08-12T00:10:26;100133.56;;;24.60;100.00
42621;BME280;28252;53.336;-6.298;2023-08-12T00:11:02;100130.84;;;24.60;100.00
42621;BME280;28252;53.336;-6.298;2023-08-12T00:11:36;100118.28;;;24.59;100.00
42621;BME280;28252;53.336;-6.298;2023-08-12T00:12:07;100110.09;;;24.59;100.00
42621;BME280;28252;53.336;-6.298;2023-08-12T00:12:42;100121.81;;;24.60;100.00
42621;BME280;28252;53.336;-6.298;2023-08-12T00:13:16;100107.38;;;24.59;100.00
42621;BME280;28252;53.336;-6.298;2023-08-12T00:13:48;100127.28;;;24.60;100.00
42621;BME280;28252;53.336;-6.298;2023-08-12T00:14:25;100121.81;;;24.60;100.00
42621;BME280;28252;53.336;-6.298;2023-08-12T00:14:57;100116.59;;;24.58;100.00
42621;BME280;28252;53.336;-6.298;2023-08-12T00:15:32;100109.28;;;24.59;100.00
42621;BME280;28252;53.336;-6.298;2023-08-12T00:16:10;100113.03;;;24.58;100.00
42621;BME280;28252;53.336;-6.298;2023-08-12T00:16:41;100108.22;;;24.60;100.00
42621;BME280;28252;53.336;-6.298;2023-08-12T00:17:13;100109.28;;;24.59;100.00
42621;BME280;28252;53.336;-6.298;2023-08-12T00:17:44;100125.63;;;24.59;100.00
42621;BME280;28252;53.336;-6.298;2023-08-12T00:18:15;100099.22;;;24.59;100.00
42621;BME280;28252;53.336;-6.298;2023-08-12T00:18:51;100109.28;;;24.59;100.00
42621;BME280;28252;53.336;-6.298;2023-08-12T00:19:24;100112.00;;;24.59;100.00
42621;BME280;28252;53.336;-6.298;2023-08-12T00:20:00;100114.72;;;24.59;100.00
42621;BME280;28252;53.336;-6.298;2023-08-12T00:20:32;100103.84;;;24.59;100.00
42621;BME280;28252;53.336;-6.298;2023-08-12T00:21:51;100098.38;;;24.59;100.00
42621;BME280;28252;53.336;-6.298;2023-08-12T00:22:23;100105.50;;;24.60;100.00
42621;BME280;28252;53.336;-6.298;2023-08-12T00:22:54;100110.09;;;24.59;100.00
42621;BME280;28252;53.336;-6.298;2023-08-12T00:23:27;100112.00;;;24.59;100.00
42621;BME280;28252;53.336;-6.298;2023-08-12T00:24:03;100114.72;;;24.59;100.00
42621;BME280;28252;53.336;-6.298;2023-08-12T00:24:34;100113.03;;;24.58;100.00
42621;BME280;28252;53.336;-6.298;2023-08-12T00:25:05;100115.75;;;24.58;100.00
42621;BME280;28252;53.336;-6.298;2023-08-12T00:25:38;100101.13;;;24.59;100.00
42621;BME280;28252;53.336;-6.298;2023-08-12T00:26:10;100096.69;;;24.58;100.00
42621;BME280;28252;53.336;-6.298;2023-08-12T00:26:41;100099.44;;;24.58;100.00
42621;BME280;28252;53.336;-6.298;2023-08-12T00:27:19;100103.84;;;24.59;100.00
42621;BME280;28252;53.336;-6.298;2023-08-12T00:27:54;100105.69;;;24.58;100.00
42621;BME280;28252;53.336;-6.298;2023-08-12T00:28:30;100105.69;;;24.58;100.00
42621;BME280;28252;53.336;-6.298;2023-08-12T00:29:04;100106.78;;;24.57;100.00
42621;BME280;28252;53.336;-6.298;2023-08-12T00:29:35;100106.78;;;24.57;100.00
42621;BME280;28252;53.336;-6.298;2023-08-12T00:30:16;100105.69;;;24.58;100.00
42621;BME280;28252;53.336;-6.298;2023-08-12T00:30:49;100107.59;;;24.58;100.00
42621;BME280;28252;53.336;-6.298;2023-08-12T00:31:20;100104.03;;;24.57;100.00
42621;BME280;28252;53.336;-6.298;2023-08-12T00:31:53;100104.25;;;24.56;100.00
42621;BME280;28252;53.336;-6.298;2023-08-12T00:33:51;100098.81;;;24.56;100.00
42621;BME280;28252;53.336;-6.298;2023-08-12T00:34:29;100115.97;;;24.56;100.00
42621;BME280;28252;53.336;-6.298;2023-08-12T00:35:02;100102.56;;;24.55;100.00
42621;BME280;28252;53.336;-6.298;2023-08-12T00:35:33;100108.00;;;24.55;100.00
42621;BME280;28252;53.336;-6.298;2023-08-12T00:36:08;100110.75;;;24.55;100.00
42621;BME280;28252;53.336;-6.298;2023-08-12T00:36:39;100105.28;;;24.55;100.00
42621;BME280;28252;53.336;-6.298;2023-08-12T00:37:12;100112.63;;;24.54;100.00
42621;BME280;28252;53.336;-6.298;2023-08-12T00:37:48;100099.03;;;24.54;100.00
42621;BME280;28252;53.336;-6.298;2023-08-12T00:38:19;100100.88;;;24.54;100.00
42621;BME280;28252;53.336;-6.298;2023-08-12T00:38:50;100105.28;;;24.55;100.00
42621;BME280;28252;53.336;-6.298;2023-08-12T00:39:21;100104.47;;;24.54;100.00
42621;BME280;28252;53.336;-6.298;2023-08-12T00:39:55;100111.78;;;24.54;100.00
42621;BME280;28252;53.336;-6.298;2023-08-12T00:40:30;100114.50;;;24.54;100.00
42621;BME280;28252;53.336;-6.298;2023-08-12T00:41:06;100111.78;;;24.54;100.00
42621;BME280;28252;53.336;-6.298;2023-08-12T00:41:41;100106.34;;;24.54;100.00
42621;BME280;28252;53.336;-6.298;2023-08-12T00:42:17;100105.47;;;24.53;100.00
42621;BME280;28252;53.336;-6.298;2023-08-12T00:42:50;100111.78;;;24.54;100.00
42621;BME280;28252;53.336;-6.298;2023-08-12T00:43:21;100105.47;;;24.53;100.00
42621;BME280;28252;53.336;-6.298;2023-08-12T00:43:52;100106.34;;;24.54;100.00
42621;BME280;28252;53.336;-6.298;2023-08-12T00:44:27;100100.88;;;24.54;100.00
42621;BME280;28252;53.336;-6.298;2023-08-12T00:45:01;100099.19;;;24.53;100.00
42621;BME280;28252;53.336;-6.298;2023-08-12T00:45:35;100103.59;;;24.54;100.00
42621;BME280;28252;53.336;-6.298;2023-08-12T00:46:12;100106.34;;;24.54;100.00
42621;BME280;28252;53.336;-6.298;2023-08-12T00:46:45;100110.09;;;24.53;100.00
42621;BME280;28252;53.336;-6.298;2023-08-12T00:47:16;100108.41;;;24.52;100.00
42621;BME280;28252;53.336;-6.298;2023-08-12T00:47:52;100097.31;;;24.53;100.00
42621;BME280;28252;53.336;-6.298;2023-08-12T00:48:27;100108.41;;;24.52;100.00
42621;BME280;28252;53.336;-6.298;2023-08-12T00:49:00;100104.66;;;24.53;100.00
42621;BME280;28252;53.336;-6.298;2023-08-12T00:49:31;100105.69;;;24.52;100.00
42621;BME280;28252;53.336;-6.298;2023-08-12T00:50:07;100092.94;;;24.52;100.00
42621;BME280;28252;53.336;-6.298;2023-08-12T00:50:39;100088.31;;;24.53;100.00
42621;BME280;28252;53.336;-6.298;2023-08-12T00:51:11;100096.47;;;24.53;100.00
42621;BME280;28252;53.336;-6.298;2023-08-12T00:51:49;100094.78;;;24.52;100.00
42621;BME280;28252;53.336;-6.298;2023-08-12T00:52:29;100091.25;;;24.51;100.00
42621;BME280;28252;53.336;-6.298;2023-08-12T00:53:02;100090.41;;;24.51;100.00
42621;BME280;28252;53.336;-6.298;2023-08-12T00:53:36;100097.53;;;24.52;100.00
42621;BME280;28252;53.336;-6.298;2023-08-12T00:54:14;100087.69;;;24.51;100.00
42621;BME280;28252;53.336;-6.298;2023-08-12T00:54:49;100084.97;;;24.51;100.00
42621;BME280;28252;53.336;-6.298;2023-08-12T00:55:20;100094.19;;;24.50;100.00
42621;BME280;28252;53.336;-6.298;2023-08-12T00:55:53;100093.13;;;24.51;100.00
42621;BME280;28252;53.336;-6.298;2023-08-12T00:56:31;100090.41;;;24.51;100.00
42621;BME280;28252;53.336;-6.298;2023-08-12T00:57:03;100088.72;;;24.50;100.00
42621;BME280;28252;53.336;-6.298;2023-08-12T00:57:41;100094.19;;;24.50;100.00
42621;BME280;28252;53.336;-6.298;2023-08-12T00:58:15;100099.63;;;24.50;100.00
42621;BME280;28252;53.336;-6.298;2023-08-12T00:58:52;100089.59;;;24.50;100.00
42621;BME280;28252;53.336;-6.298;2023-08-12T00:59:33;100088.72;;;24.50;100.00
42621;BME280;28252;53.336;-6.298;2023-08-12T01:00:12;100079.75;;;24.49;100.00
42621;BME280;28252;53.336;-6.298;2023-08-12T01:00:54;100096.06;;;24.49;100.00
42621;BME280;28252;53.336;-6.298;2023-08-12T01:01:30;100088.72;;;24.50;100.00
42621;BME280;28252;53.336;-6.298;2023-08-12T01:02:06;100094.19;;;24.50;100.00
42621;BME280;28252;53.336;-6.298;2023-08-12T01:02:37;100087.91;;;24.49;100.00
42621;BME280;28252;53.336;-6.298;2023-08-12T01:03:11;100082.47;;;24.49;100.00
42621;BME280;28252;53.336;-6.298;2023-08-12T01:03:44;100090.63;;;24.49;100.00
42621;BME280;28252;53.336;-6.298;2023-08-12T01:04:17;100091.66;;;24.48;100.00
42621;BME280;28252;53.336;-6.298;2023-08-12T01:04:53;100083.28;;;24.50;100.00
42621;BME280;28252;53.336;-6.298;2023-08-12T01:05:29;100093.34;;;24.49;100.00
42621;BME280;28252;53.336;-6.298;2023-08-12T01:06:02;100088.72;;;24.50;100.00
42621;BME280;28252;53.336;-6.298;2023-08-12T01:06:36;100087.09;;;24.49;100.00
42621;BME280;28252;53.336;-6.298;2023-08-12T01:07:10;100082.47;;;24.49;100.00
42621;BME280;28252;53.336;-6.298;2023-08-12T01:07:44;100083.28;;;24.50;100.00
42621;BME280;28252;53.336;-6.298;2023-08-12T01:08:17;100079.75;;;24.49;100.00
42621;BME280;28252;53.336;-6.298;2023-08-12T01:08:48;100094.19;;;24.50;100.00
42621;BME280;28252;53.336;-6.298;2023-08-12T01:09:24;100086.22;;;24.48;100.00
42621;BME280;28252;53.336;-6.298;2023-08-12T01:10:00;100077.03;;;24.49;100.00
42621;BME280;28252;53.336;-6.298;2023-08-12T01:10:33;100061.50;;;24.50;100.00
42621;BME280;28252;53.336;-6.298;2023-08-12T01:11:19;100071.56;;;24.49;100.00
42621;BME280;28252;53.336;-6.298;2023-08-12T01:12:05;100074.28;;;24.49;100.00
42621;BME280;28252;53.336;-6.298;2023-08-12T01:12:47;100078.06;;;24.48;100.00
42621;BME280;28252;53.336;-6.298;2023-08-12T01:13:29;100069.88;;;24.48;100.00
42621;BME280;28252;53.336;-6.298;2023-08-12T01:14:12;100070.75;;;24.49;100.00
42621;BME280;28252;53.336;-6.298;2023-08-12T01:14:54;100075.34;;;24.48;100.00
42621;BME280;28252;53.336;-6.298;2023-08-12T01:16:17;100071.78;;;24.48;100.00
42621;BME280;28252;53.336;-6.298;2023-08-12T01:16:49;100074.50;;;24.48;100.00
42621;BME280;28252;53.336;-6.298;2023-08-12T01:17:24;100074.50;;;24.48;100.00
42621;BME280;28252;53.336;-6.298;2023-08-12T01:17:57;100068.25;;;24.47;100.00
42621;BME280;28252;53.336;-6.298;2023-08-12T01:18:37;100069.06;;;24.48;100.00
42621;BME280;28252;53.336;-6.298;2023-08-12T01:19:28;100069.06;;;24.48;100.00
42621;BME280;28252;53.336;-6.298;2023-08-12T01:20:03;100067.38;;;24.47;100.00
42621;BME280;28252;53.336;-6.298;2023-08-12T01:20:42;100062.78;;;24.47;100.00
42621;BME280;28252;53.336;-6.298;2023-08-12T01:21:16;100072.81;;;24.47;100.00
42621;BME280;28252;53.336;-6.298;2023-08-12T01:21:54;100061.94;;;24.47;100.00
42621;BME280;28252;53.336;-6.298;2023-08-12T01:22:28;100065.72;;;24.46;100.00
42621;BME280;28252;53.336;-6.298;2023-08-12T01:23:08;100063.84;;;24.46;100.00
42621;BME280;28252;53.336;-6.298;2023-08-12T01:23:46;100056.50;;;24.47;100.00
42621;BME280;28252;53.336;-6.298;2023-08-12T01:24:24;100054.84;;;24.46;100.00
42621;BME280;28252;53.336;-6.298;2023-08-12T01:24:55;100059.22;;;24.47;100.00
42621;BME280;28252;53.336;-6.298;2023-08-12T01:25:29;100060.28;;;24.46;100.00
42621;BME280;28252;53.336;-6.298;2023-08-12T01:26:02;100054.84;;;24.46;100.00
42621;BME280;28252;53.336;-6.298;2023-08-12T01:26:38;100057.56;;;24.46;100.00
42621;BME280;28252;53.336;-6.298;2023-08-12T01:27:17;100040.16;;;24.47;100.00
42621;BME280;28252;53.336;-6.298;2023-08-12T01:27:48;100035.78;;;24.46;100.00
42621;BME280;28252;53.336;-6.298;2023-08-12T01:28:23;100046.66;;;24.46;100.00
42621;BME280;28252;53.336;-6.298;2023-08-12T01:28:58;100043.94;;;24.46;100.00
42621;BME280;28252;53.336;-6.298;2023-08-12T01:29:32;100054.84;;;24.46;100.00
42621;BME280;28252;53.336;-6.298;2023-08-12T01:30:08;100052.13;;;24.46;100.00
42621;BME280;28252;53.336;-6.298;2023-08-12T01:31:25;100043.13;;;24.45;100.00
42621;BME280;28252;53.336;-6.298;2023-08-12T01:31:43;100047.72;;;24.45;100.00
42621;BME280;28252;53.336;-6.298;2023-08-12T01:32:28;100049.41;;;24.46;100.00
42621;BME280;28252;53.336;-6.298;2023-08-12T01:33:21;100048.56;;;24.45;100.00
42621;BME280;28252;53.336;-6.298;2023-08-12T01:34:27;100045.00;;;24.45;100.00
42621;BME280;28252;53.336;-6.298;2023-08-12T01:35:51;100047.72;;;24.45;100.00
42621;BME280;28252;53.336;-6.298;2023-08-12T01:36:27;100049.41;;;24.46;100.00
42621;BME280;28252;53.336;-6.298;2023-08-12T01:37:01;100042.25;;;24.45;100.00
42621;BME280;28252;53.336;-6.298;2023-08-12T01:37:39;100041.44;;;24.44;100.00
42621;BME280;28252;53.336;-6.298;2023-08-12T01:38:15;100042.25;;;24.45;100.00
42621;BME280;28252;53.336;-6.298;2023-08-12T01:38:51;100030.56;;;24.44;100.00
42621;BME280;28252;53.336;-6.298;2023-08-12T01:39:26;100040.63;;;24.43;100.00
42621;BME280;28252;53.336;-6.298;2023-08-12T01:40:02;100041.44;;;24.44;100.00
42621;BME280;28252;53.336;-6.298;2023-08-12T01:40:38;100031.38;;;24.45;100.00
42621;BME280;28252;53.336;-6.298;2023-08-12T01:41:12;100032.44;;;24.43;100.00
42621;BME280;28252;53.336;-6.298;2023-08-12T01:41:46;100036.00;;;24.44;100.00
42621;BME280;28252;53.336;-6.298;2023-08-12T01:42:20;100035.16;;;24.43;100.00
42621;BME280;28252;53.336;-6.298;2023-08-12T01:42:54;100029.72;;;24.43;100.00
42621;BME280;28252;53.336;-6.298;2023-08-12T01:43:25;100036.81;;;24.45;100.00
42621;BME280;28252;53.336;-6.298;2023-08-12T01:44:01;100026.16;;;24.43;100.00
42621;BME280;28252;53.336;-6.298;2023-08-12T01:44:33;100024.28;;;24.43;100.00
42621;BME280;28252;53.336;-6.298;2023-08-12T01:45:07;100036.00;;;24.44;100.00
42621;BME280;28252;53.336;-6.298;2023-08-12T01:45:41;100028.03;;;24.42;100.00
42621;BME280;28252;53.336;-6.298;2023-08-12T01:46:12;100031.59;;;24.43;100.00
42621;BME280;28252;53.336;-6.298;2023-08-12T01:46:45;100035.16;;;24.43;100.00
42621;BME280;28252;53.336;-6.298;2023-08-12T01:47:19;100031.59;;;24.43;100.00
42621;BME280;28252;53.336;-6.298;2023-08-12T01:47:52;100028.03;;;24.42;100.00
42621;BME280;28252;53.336;-6.298;2023-08-12T01:48:25;100024.50;;;24.42;100.00
42621;BME280;28252;53.336;-6.298;2023-08-12T01:49:03;100027.22;;;24.42;100.00
42621;BME280;28252;53.336;-6.298;2023-08-12T01:49:37;100024.50;;;24.42;100.00
42621;BME280;28252;53.336;-6.298;2023-08-12T01:50:12;100033.47;;;24.42;100.00
42621;BME280;28252;53.336;-6.298;2023-08-12T01:50:48;100023.63;;;24.41;100.00
42621;BME280;28252;53.336;-6.298;2023-08-12T01:51:24;100038.94;;;24.42;100.00
42621;BME280;28252;53.336;-6.298;2023-08-12T01:51:59;100028.88;;;24.43;100.00
42621;BME280;28252;53.336;-6.298;2023-08-12T01:52:33;100027.22;;;24.42;100.00
42621;BME280;28252;53.336;-6.298;2023-08-12T01:53:13;100021.78;;;24.42;100.00
42621;BME280;28252;53.336;-6.298;2023-08-12T01:53:48;100021.78;;;24.42;100.00
42621;BME280;28252;53.336;-6.298;2023-08-12T01:54:19;100020.91;;;24.41;100.00
42621;BME280;28252;53.336;-6.298;2023-08-12T01:54:57;100028.03;;;24.42;100.00
42621;BME280;28252;53.336;-6.298;2023-08-12T01:55:30;100010.88;;;24.42;100.00
42621;BME280;28252;53.336;-6.298;2023-08-12T01:56:03;100032.66;;;24.42;100.00
42621;BME280;28252;53.336;-6.298;2023-08-12T01:56:34;100008.97;;;24.42;100.00
42621;BME280;28252;53.336;-6.298;2023-08-12T01:57:05;99997.28;;;24.42;100.00
42621;BME280;28252;53.336;-6.298;2023-08-12T01:57:42;100010.03;;;24.41;100.00
42621;BME280;28252;53.336;-6.298;2023-08-12T01:58:15;100020.91;;;24.41;100.00
42621;BME280;28252;53.336;-6.298;2023-08-12T01:58:48;100015.47;;;24.41;100.00
42621;BME280;28252;53.336;-6.298;2023-08-12T01:59:24;100009.19;;;24.41;100.00
42621;BME280;28252;53.336;-6.298;2023-08-12T02:00:00;100013.81;;;24.40;100.00
42621;BME280;28252;53.336;-6.298;2023-08-12T02:00:49;100015.47;;;24.41;100.00
42621;BME280;28252;53.336;-6.298;2023-08-12T02:01:25;100008.38;;;24.40;100.00
42621;BME280;28252;53.336;-6.298;2023-08-12T02:01:59;100003.75;;;24.41;100.00
42621;BME280;28252;53.336;-6.298;2023-08-12T02:02:32;100005.66;;;24.40;100.00
42621;BME280;28252;53.336;-6.298;2023-08-12T02:03:05;100012.13;;;24.39;100.00
42621;BME280;28252;53.336;-6.298;2023-08-12T02:03:39;100007.53;;;24.40;100.00
42621;BME280;28252;53.336;-6.298;2023-08-12T02:04:18;100014.63;;;24.41;100.00
42621;BME280;28252;53.336;-6.298;2023-08-12T02:04:49;100011.09;;;24.40;100.00
42621;BME280;28252;53.336;-6.298;2023-08-12T02:05:20;100008.38;;;24.40;100.00
42621;BME280;28252;53.336;-6.298;2023-08-12T02:06:02;100024.69;;;24.40;100.00
42621;BME280;28252;53.336;-6.298;2023-08-12T02:06:33;100007.53;;;24.40;100.00
42621;BME280;28252;53.336;-6.298;2023-08-12T02:07:09;99996.66;;;24.40;100.00
42621;BME280;28252;53.336;-6.298;2023-08-12T02:07:47;100020.09;;;24.41;100.00
42621;BME280;28252;53.336;-6.298;2023-08-12T02:08:25;100007.53;;;24.40;100.00
42621;BME280;28252;53.336;-6.298;2023-08-12T02:08:58;100021.16;;;24.40;100.00
42621;BME280;28252;53.336;-6.298;2023-08-12T02:09:34;100002.09;;;24.40;100.00
42621;BME280;28252;53.336;-6.298;2023-08-12T02:10:07;100005.88;;;24.39;100.00
42621;BME280;28252;53.336;-6.298;2023-08-12T02:10:40;99995.81;;;24.39;100.00
42621;BME280;28252;53.336;-6.298;2023-08-12T02:11:11;100011.31;;;24.39;100.00
42621;BME280;28252;53.336;-6.298;2023-08-12T02:11:47;100006.69;;;24.39;100.00
42621;BME280;28252;53.336;-6.298;2023-08-12T02:12:23;99995.81;;;24.39;100.00
42621;BME280;28252;53.336;-6.298;2023-08-12T02:12:56;99997.69;;;24.39;100.00
42621;BME280;28252;53.336;-6.298;2023-08-12T02:13:27;100000.41;;;24.39;100.00
42621;BME280;28252;53.336;-6.298;2023-08-12T02:14:00;99994.16;;;24.38;100.00
42621;BME280;28252;53.336;-6.298;2023-08-12T02:14:31;99999.59;;;24.38;100.00
42621;BME280;28252;53.336;-6.298;2023-08-12T02:15:10;99999.59;;;24.38;100.00
42621;BME280;28252;53.336;-6.298;2023-08-12T02:15:41;100000.41;;;24.39;100.00
42621;BME280;28252;53.336;-6.298;2023-08-12T02:16:18;99992.47;;;24.37;100.00
42621;BME280;28252;53.336;-6.298;2023-08-12T02:16:51;99998.75;;;24.38;100.00
42621;BME280;28252;53.336;-6.298;2023-08-12T02:17:30;99988.72;;;24.38;100.00
42621;BME280;28252;53.336;-6.298;2023-08-12T02:18:03;99981.56;;;24.37;100.00
42621;BME280;28252;53.336;-6.298;2023-08-12T02:18:37;99994.16;;;24.38;100.00
42621;BME280;28252;53.336;-6.298;2023-08-12T02:19:13;99995.19;;;24.37;100.00
42621;BME280;28252;53.336;-6.298;2023-08-12T02:19:46;99995.19;;;24.37;100.00
42621;BME280;28252;53.336;-6.298;2023-08-12T02:20:17;99990.78;;;24.36;100.00
42621;BME280;28252;53.336;-6.298;2023-08-12T02:20:51;99990.78;;;24.36;100.00
42621;BME280;28252;53.336;-6.298;2023-08-12T02:21:22;99986.19;;;24.37;100.00
42621;BME280;28252;53.336;-6.298;2023-08-12T02:21:58;99989.75;;;24.37;100.00
42621;BME280;28252;53.336;-6.298;2023-08-12T02:22:32;99992.47;;;24.37;100.00
42621;BME280;28252;53.336;-6.298;2023-08-12T02:23:08;99979.91;;;24.36;100.00
42621;BME280;28252;53.336;-6.298;2023-08-12T02:23:39;99980.75;;;24.37;100.00
42621;BME280;28252;53.336;-6.298;2023-08-12T02:25:05;99981.78;;;24.36;100.00
42621;BME280;28252;53.336;-6.298;2023-08-12T02:25:41;99974.44;;;24.36;100.00
42621;BME280;28252;53.336;-6.298;2023-08-12T02:26:15;99974.44;;;24.36;100.00
42621;BME280;28252;53.336;-6.298;2023-08-12T02:26:52;99980.97;;;24.35;100.00
42621;BME280;28252;53.336;-6.298;2023-08-12T02:27:24;99970.91;;;24.36;100.00
42621;BME280;28252;53.336;-6.298;2023-08-12T02:27:57;99974.44;;;24.36;100.00
42621;BME280;28252;53.336;-6.298;2023-08-12T02:28:30;99986.41;;;24.35;100.00
42621;BME280;28252;53.336;-6.298;2023-08-12T02:29:05;99981.78;;;24.36;100.00
42621;BME280;28252;53.336;-6.298;2023-08-12T02:29:41;99979.06;;;24.36;100.00
42621;BME280;28252;53.336;-6.298;2023-08-12T02:30:16;99983.47;;;24.37;100.00
42621;BME280;28252;53.336;-6.298;2023-08-12T02:30:47;99980.97;;;24.35;100.00
42621;BME280;28252;53.336;-6.298;2023-08-12T02:31:20;99990.78;;;24.36;100.00
42621;BME280;28252;53.336;-6.298;2023-08-12T02:31:52;99978.25;;;24.35;100.00
42621;BME280;28252;53.336;-6.298;2023-08-12T02:32:24;99978.25;;;24.35;100.00
42621;BME280;28252;53.336;-6.298;2023-08-12T02:32:56;99980.75;;;24.37;100.00
42621;BME280;28252;53.336;-6.298;2023-08-12T02:33:29;99982.63;;;24.36;100.00
42621;BME280;28252;53.336;-6.298;2023-08-12T02:34:00;99972.81;;;24.35;100.00
42621;BME280;28252;53.336;-6.298;2023-08-12T02:34:31;99984.50;;;24.36;100.00
42621;BME280;28252;53.336;-6.298;2023-08-12T02:35:06;99974.44;;;24.36;100.00
42621;BME280;28252;53.336;-6.298;2023-08-12T02:35:39;99983.69;;;24.35;100.00
42621;BME280;28252;53.336;-6.298;2023-08-12T02:36:16;99964.63;;;24.35;100.00
42621;BME280;28252;53.336;-6.298;2023-08-12T02:36:54;99972.81;;;24.35;100.00
42621;BME280;28252;53.336;-6.298;2023-08-12T02:37:28;99971.97;;;24.35;100.00
42621;BME280;28252;53.336;-6.298;2023-08-12T02:37:59;99966.53;;;24.35;100.00
42621;BME280;28252;53.336;-6.298;2023-08-12T02:38:34;99985.34;;;24.36;100.00
42621;BME280;28252;53.336;-6.298;2023-08-12T02:39:12;99976.56;;;24.34;100.00
42621;BME280;28252;53.336;-6.298;2023-08-12T02:39:50;99976.56;;;24.34;100.00
42621;BME280;28252;53.336;-6.298;2023-08-12T02:40:25;99978.25;;;24.35;100.00
42621;BME280;28252;53.336;-6.298;2023-08-12T02:40:59;99978.25;;;24.35;100.00
42621;BME280;28252;53.336;-6.298;2023-08-12T02:41:33;99983.69;;;24.35;100.00
42621;BME280;28252;53.336;-6.298;2023-08-12T02:42:09;99971.13;;;24.34;100.00
42621;BME280;28252;53.336;-6.298;2023-08-12T02:42:44;99973.84;;;24.34;100.00
42621;BME280;28252;53.336;-6.298;2023-08-12T02:43:25;99992.88;;;24.34;100.00
42621;BME280;28252;53.336;-6.298;2023-08-12T02:43:56;99982.00;;;24.34;100.00
42621;BME280;28252;53.336;-6.298;2023-08-12T02:44:29;99983.91;;;24.34;100.00
42621;BME280;28252;53.336;-6.298;2023-08-12T02:45:02;99973.00;;;24.34;100.00
42621;BME280;28252;53.336;-6.298;2023-08-12T02:45:38;99982.00;;;24.34;100.00
42621;BME280;28252;53.336;-6.298;2023-08-12T02:46:09;99971.13;;;24.34;100.00
42621;BME280;28252;53.336;-6.298;2023-08-12T02:46:42;99973.84;;;24.34;100.00
42621;BME280;28252;53.336;-6.298;2023-08-12T02:47:15;99979.28;;;24.34;100.00
42621;BME280;28252;53.336;-6.298;2023-08-12T02:47:48;99979.28;;;24.34;100.00
42621;BME280;28252;53.336;-6.298;2023-08-12T02:48:21;99978.47;;;24.34;100.00
42621;BME280;28252;53.336;-6.298;2023-08-12T02:48:55;99969.47;;;24.33;100.00
42621;BME280;28252;53.336;-6.298;2023-08-12T02:49:26;99975.72;;;24.34;100.00
42621;BME280;28252;53.336;-6.298;2023-08-12T02:49:59;99972.19;;;24.33;100.00
42621;BME280;28252;53.336;-6.298;2023-08-12T02:50:35;99971.34;;;24.33;100.00
42621;BME280;28252;53.336;-6.298;2023-08-12T02:51:06;99964.03;;;24.33;100.00
42621;BME280;28252;53.336;-6.298;2023-08-12T02:51:39;99966.97;;;24.32;100.00
42621;BME280;28252;53.336;-6.298;2023-08-12T02:52:13;99968.81;;;24.31;100.00
42621;BME280;28252;53.336;-6.298;2023-08-12T02:52:46;99967.78;;;24.32;100.00
42621;BME280;28252;53.336;-6.298;2023-08-12T02:53:20;99971.34;;;24.33;100.00
42621;BME280;28252;53.336;-6.298;2023-08-12T02:53:53;99967.78;;;24.32;100.00
42621;BME280;28252;53.336;-6.298;2023-08-12T02:54:29;99970.50;;;24.32;100.00
42621;BME280;28252;53.336;-6.298;2023-08-12T02:55:07;99963.16;;;24.33;100.00
42621;BME280;28252;53.336;-6.298;2023-08-12T02:55:39;99965.06;;;24.32;100.00
42621;BME280;28252;53.336;-6.298;2023-08-12T02:56:14;99952.28;;;24.33;100.00
42621;BME280;28252;53.336;-6.298;2023-08-12T02:56:49;99956.91;;;24.32;100.00
42621;BME280;28252;53.336;-6.298;2023-08-12T02:57:22;99956.91;;;24.32;100.00
42621;BME280;28252;53.336;-6.298;2023-08-12T02:57:54;99963.38;;;24.31;100.00
42621;BME280;28252;53.336;-6.298;2023-08-12T02:58:27;99966.97;;;24.32;100.00
42621;BME280;28252;53.336;-6.298;2023-08-12T02:58:58;99958.78;;;24.32;100.00
42621;BME280;28252;53.336;-6.298;2023-08-12T02:59:34;99960.66;;;24.31;100.00
42621;BME280;28252;53.336;-6.298;2023-08-12T03:00:05;99960.66;;;24.31;100.00
42621;BME280;28252;53.336;-6.298;2023-08-12T03:00:36;99963.38;;;24.31;100.00
42621;BME280;28252;53.336;-6.298;2023-08-12T03:01:12;99955.22;;;24.31;100.00
42621;BME280;28252;53.336;-6.298;2023-08-12T03:01:47;99957.13;;;24.31;100.00
42621;BME280;28252;53.336;-6.298;2023-08-12T03:02:21;99955.47;;;24.30;100.00